This is the latest recevied weather packets stored in our database for station/object SALT. If no packets are shown the sender has not sent any weather packets the latest 10 day(s).
| Time | Temp. | Humidity | Pressure | Rain* | Wind** | Luminosity | Snow |
|---|---|---|---|---|---|---|---|
| 1777732832 | 11.67° C | 30% | 1021.5 hPa | 0 mm | - | - | - |
| 1777732230 | 11.67° C | 30% | 1021.4 hPa | 0 mm | - | - | - |
| 1777731625 | 11.67° C | 30% | 1021.4 hPa | 0 mm | - | - | - |
| 1777731022 | 11.67° C | 32% | 1021.3 hPa | 0 mm | - | - | - |
| 1777730419 | 11.11° C | 35% | 1021.4 hPa | 0 mm | - | - | - |
| 1777729817 | 10.56° C | 33% | 1021.4 hPa | 0 mm | - | - | - |
| 1777729272 | 10.56° C | 34% | 1021.2 hPa | 0 mm | - | - | - |
| 1777729214 | 10.56° C | 34% | 1021.2 hPa | 0 mm | - | - | - |
| 1777728612 | 10.56° C | 33% | 1021.3 hPa | 0 mm | - | - | - |
| 1777728007 | 10.56° C | 33% | 1021.1 hPa | 0 mm | - | - | - |
| 1777727404 | 10.56° C | 33% | 1021.1 hPa | 0 mm | - | - | - |
| 1777726801 | 10.56° C | 34% | 1021.3 hPa | 0 mm | - | - | - |
| 1777726199 | 10.56° C | 34% | 1021.3 hPa | 0 mm | - | - | - |
| 1777725596 | 10.56° C | 36% | 1021.4 hPa | 0 mm | - | - | - |
| 1777724994 | 10.56° C | 37% | 1021.4 hPa | 0 mm | - | - | - |
| 1777724389 | 10.56° C | 36% | 1021.4 hPa | 0 mm | - | - | - |
| 1777723786 | 11.11° C | 36% | 1021.5 hPa | 0 mm | - | - | - |
| 1777723183 | 11.11° C | 35% | 1021.6 hPa | 0 mm | - | - | - |
| 1777722581 | 10.56° C | 37% | 1021.7 hPa | 0 mm | - | - | - |
| 1777721978 | 10.56° C | 38% | 1021.7 hPa | 0 mm | - | - | - |
| 1777721376 | 10° C | 39% | 1021.8 hPa | 0 mm | - | - | - |
| 1777720771 | 10.56° C | 39% | 1021.8 hPa | 0 mm | - | - | - |
| 1777720167 | 10° C | 40% | 1021.8 hPa | 0 mm | - | - | - |
| 1777719565 | 10° C | 41% | 1022 hPa | 0 mm | - | - | - |
| 1777718962 | 8.89° C | 46% | 1022.1 hPa | 0 mm | - | - | - |
* Rain latest 24 hours (hover to see other rain measurements)
** Current wind speed in m/s (hover to see current wind gust speed)